createdAt,value
2023-03-26T00:00:45.341Z,996.36
2023-03-26T00:01:48.038Z,996.32
2023-03-26T00:02:50.798Z,996.37
2023-03-26T00:04:43.333Z,996.35
2023-03-26T00:05:43.945Z,996.4
2023-03-26T00:06:43.056Z,996.35
2023-03-26T00:07:43.194Z,996.36
2023-03-26T00:08:43.232Z,996.33
2023-03-26T00:09:43.200Z,996.38
2023-03-26T00:10:43.325Z,996.42
2023-03-26T00:11:43.060Z,996.44
2023-03-26T00:12:43.282Z,996.44
2023-03-26T00:13:43.280Z,996.41
2023-03-26T00:14:43.069Z,996.45
2023-03-26T00:15:43.380Z,996.43
2023-03-26T00:16:43.131Z,996.43
2023-03-26T00:17:43.471Z,996.46
2023-03-26T00:18:43.508Z,996.45
2023-03-26T00:19:43.060Z,996.45
2023-03-26T00:20:43.054Z,996.46
2023-03-26T00:21:45.498Z,996.45
2023-03-26T00:22:49.325Z,996.43
2023-03-26T00:23:49.740Z,996.5
2023-03-26T00:25:43.067Z,996.48
2023-03-26T00:26:43.091Z,996.45
2023-03-26T00:27:43.055Z,996.52
2023-03-26T00:28:43.067Z,996.44
2023-03-26T00:29:43.063Z,996.49
2023-03-26T00:30:43.066Z,996.51
2023-03-26T00:31:43.055Z,996.56
2023-03-26T00:32:43.076Z,996.58
2023-03-26T00:33:43.062Z,996.61
2023-03-26T00:34:43.072Z,996.59
2023-03-26T00:35:43.114Z,996.62
2023-03-26T00:36:43.056Z,996.61
2023-03-26T00:37:43.058Z,996.59
2023-03-26T00:38:43.051Z,996.62
2023-03-26T00:39:43.071Z,996.59
2023-03-26T00:40:43.066Z,996.58
2023-03-26T00:41:43.333Z,996.58
2023-03-26T00:42:43.125Z,996.58
2023-03-26T00:43:45.420Z,996.57
2023-03-26T00:44:48.270Z,996.5
2023-03-26T00:45:49.244Z,996.52
2023-03-26T00:47:43.078Z,996.52
2023-03-26T00:48:47.239Z,996.52
2023-03-26T00:50:43.081Z,996.57
2023-03-26T00:51:43.063Z,996.52
2023-03-26T00:52:43.064Z,996.52
2023-03-26T00:53:43.062Z,996.49
2023-03-26T00:54:43.073Z,996.48
2023-03-26T00:55:43.059Z,996.49
2023-03-26T00:56:43.070Z,996.46
2023-03-26T00:57:43.064Z,996.45
2023-03-26T00:58:43.057Z,996.41
2023-03-26T00:59:43.075Z,996.47
2023-03-26T01:00:43.807Z,996.44
2023-03-26T01:01:43.096Z,996.42
2023-03-26T01:02:43.082Z,996.41
2023-03-26T01:04:01.130Z,996.4
2023-03-26T01:04:45.627Z,996.39
2023-03-26T01:05:48.262Z,996.37
2023-03-26T01:06:50.347Z,996.37
2023-03-26T01:08:43.066Z,996.35
2023-03-26T01:09:43.120Z,996.37
2023-03-26T01:10:43.055Z,996.36
2023-03-26T01:11:43.066Z,996.36
2023-03-26T01:12:43.060Z,996.35
2023-03-26T01:13:43.054Z,996.34
2023-03-26T01:14:43.073Z,996.29
2023-03-26T01:15:43.106Z,996.38
2023-03-26T01:16:43.058Z,996.34
2023-03-26T01:17:43.141Z,996.36
2023-03-26T01:18:43.066Z,996.29
2023-03-26T01:19:43.074Z,996.34
2023-03-26T01:20:43.050Z,996.34
2023-03-26T01:21:43.070Z,996.34
2023-03-26T01:22:43.079Z,996.3
2023-03-26T01:23:43.067Z,996.3
2023-03-26T01:24:43.257Z,996.28
2023-03-26T01:25:45.408Z,996.31
2023-03-26T01:26:48.404Z,996.27
2023-03-26T01:27:50.263Z,996.23
2023-03-26T01:29:43.122Z,996.19
2023-03-26T01:30:43.059Z,996.19
2023-03-26T01:31:43.060Z,996.15
2023-03-26T01:32:43.098Z,996.16
2023-03-26T01:33:43.154Z,996.17
2023-03-26T01:34:43.086Z,996.16
2023-03-26T01:35:43.066Z,996.12
2023-03-26T01:36:43.059Z,996.15
2023-03-26T01:37:43.084Z,996.14
2023-03-26T01:38:43.077Z,996.12
2023-03-26T01:39:43.081Z,996.08
2023-03-26T01:40:43.268Z,996.13
2023-03-26T01:41:43.063Z,996.15
2023-03-26T01:42:43.066Z,996.12
2023-03-26T01:43:43.076Z,996.06
2023-03-26T01:44:43.051Z,996.07
2023-03-26T01:45:43.283Z,996.09
2023-03-26T01:46:45.639Z,996.06
2023-03-26T01:47:48.734Z,996.03
2023-03-26T01:48:50.386Z,996
2023-03-26T01:50:43.064Z,995.99
2023-03-26T01:51:43.074Z,995.96
2023-03-26T01:52:43.068Z,995.95
2023-03-26T01:53:43.080Z,995.96
2023-03-26T01:54:43.070Z,995.95
2023-03-26T01:55:43.063Z,995.95
2023-03-26T01:56:43.065Z,995.94
2023-03-26T01:57:43.057Z,995.93
2023-03-26T01:58:43.049Z,995.93
2023-03-26T01:59:43.050Z,995.91
2023-03-26T02:00:43.088Z,995.87
2023-03-26T02:01:43.075Z,995.9
2023-03-26T02:02:43.130Z,995.9
2023-03-26T02:03:43.112Z,995.87
2023-03-26T02:04:43.055Z,995.87
2023-03-26T02:05:43.058Z,995.8
2023-03-26T02:06:43.393Z,995.83
2023-03-26T02:07:45.955Z,995.86
2023-03-26T02:08:48.628Z,995.82
2023-03-26T02:09:50.437Z,995.84
2023-03-26T02:11:43.096Z,995.79
2023-03-26T02:12:43.050Z,995.81
2023-03-26T02:13:43.060Z,995.8
2023-03-26T02:14:43.064Z,995.81
2023-03-26T02:15:43.046Z,995.8
2023-03-26T02:16:43.077Z,995.78
2023-03-26T02:17:43.081Z,995.77
2023-03-26T02:18:43.065Z,995.76
2023-03-26T02:19:43.048Z,995.75
2023-03-26T02:20:43.057Z,995.74
2023-03-26T02:21:43.064Z,995.76
2023-03-26T02:22:43.057Z,995.76
2023-03-26T02:23:43.060Z,995.76
2023-03-26T02:24:43.058Z,995.74
2023-03-26T02:25:43.057Z,995.72
2023-03-26T02:26:43.053Z,995.69
2023-03-26T02:27:43.457Z,995.67
2023-03-26T02:28:45.779Z,995.62
2023-03-26T02:29:48.779Z,995.61
2023-03-26T02:30:50.577Z,995.61
2023-03-26T02:32:43.167Z,995.57
2023-03-26T02:33:43.073Z,995.57
2023-03-26T02:34:43.072Z,995.57
2023-03-26T02:35:43.112Z,995.55
2023-03-26T02:36:43.113Z,995.56
2023-03-26T02:37:43.068Z,995.47
2023-03-26T02:38:43.090Z,995.51
2023-03-26T02:39:43.054Z,995.53
2023-03-26T02:40:43.045Z,995.49
2023-03-26T02:41:43.062Z,995.46
2023-03-26T02:42:43.058Z,995.5
2023-03-26T02:43:43.071Z,995.44
2023-03-26T02:44:43.064Z,995.44
2023-03-26T02:45:43.085Z,995.43
2023-03-26T02:46:43.052Z,995.43
2023-03-26T02:47:43.054Z,995.43
2023-03-26T02:48:43.122Z,995.42
2023-03-26T02:49:45.855Z,995.4
2023-03-26T02:50:49.065Z,995.38
2023-03-26T02:51:50.675Z,995.39
2023-03-26T02:53:43.088Z,995.38
2023-03-26T02:54:43.055Z,995.39
2023-03-26T02:55:43.062Z,995.36
2023-03-26T02:56:43.063Z,995.32
2023-03-26T02:57:43.041Z,995.35
2023-03-26T02:58:43.077Z,995.32
2023-03-26T02:59:43.141Z,995.32
2023-03-26T03:00:43.117Z,995.31
2023-03-26T03:01:43.130Z,995.3
2023-03-26T03:02:43.113Z,995.26
2023-03-26T03:03:43.146Z,995.23
2023-03-26T03:04:43.042Z,995.28
2023-03-26T03:05:43.090Z,995.19
2023-03-26T03:06:43.043Z,995.13
2023-03-26T03:07:43.075Z,995.15
2023-03-26T03:08:43.051Z,995.16
2023-03-26T03:09:43.098Z,995.12
2023-03-26T03:10:45.922Z,995.2
2023-03-26T03:11:49.375Z,995.16
2023-03-26T03:12:50.739Z,995.17
2023-03-26T03:14:43.082Z,995.16
2023-03-26T03:15:43.071Z,995.13
2023-03-26T03:16:43.109Z,995.09
2023-03-26T03:17:43.094Z,995.09
2023-03-26T03:18:43.053Z,995.1
2023-03-26T03:19:43.058Z,995.09
2023-03-26T03:20:43.050Z,995.07
2023-03-26T03:21:43.136Z,995.08
2023-03-26T03:22:43.052Z,995.07
2023-03-26T03:23:43.051Z,995.12
2023-03-26T03:24:43.079Z,995.14
2023-03-26T03:25:43.059Z,995.07
2023-03-26T03:26:43.052Z,995.14
2023-03-26T03:27:43.111Z,995.11
2023-03-26T03:28:43.050Z,995.12
2023-03-26T03:29:43.058Z,995.07
2023-03-26T03:30:43.259Z,995.03
2023-03-26T03:31:46.097Z,995.05
2023-03-26T03:32:49.007Z,995.04
2023-03-26T03:33:50.824Z,995.06
2023-03-26T03:35:43.079Z,995.01
2023-03-26T03:36:43.051Z,995.02
2023-03-26T03:37:43.064Z,995.01
2023-03-26T03:38:43.059Z,995
2023-03-26T03:39:43.067Z,994.99
2023-03-26T03:40:43.053Z,995.01
2023-03-26T03:41:43.059Z,994.97
2023-03-26T03:42:43.050Z,994.96
2023-03-26T03:43:43.072Z,994.99
2023-03-26T03:44:43.083Z,994.98
2023-03-26T03:45:43.049Z,994.97
2023-03-26T03:46:43.119Z,994.97
2023-03-26T03:47:43.071Z,994.99
2023-03-26T03:48:43.089Z,994.93
2023-03-26T03:49:43.065Z,994.96
2023-03-26T03:50:43.089Z,994.98
2023-03-26T03:51:43.287Z,994.93
2023-03-26T03:52:46.805Z,994.88
2023-03-26T03:53:49.038Z,994.9
2023-03-26T03:54:50.917Z,994.86
2023-03-26T03:56:43.121Z,994.84
2023-03-26T03:57:43.054Z,994.83
2023-03-26T03:58:43.056Z,994.81
2023-03-26T03:59:49.053Z,994.83
2023-03-26T04:01:43.058Z,994.77
2023-03-26T04:02:43.375Z,994.75
2023-03-26T04:03:43.135Z,994.71
2023-03-26T04:04:43.083Z,994.7
2023-03-26T04:05:43.073Z,994.72
2023-03-26T04:06:43.048Z,994.68
2023-03-26T04:07:43.064Z,994.67
2023-03-26T04:08:43.106Z,994.67
2023-03-26T04:09:43.218Z,994.67
2023-03-26T04:10:43.352Z,994.66
2023-03-26T04:11:43.237Z,994.66
2023-03-26T04:12:43.349Z,994.66
2023-03-26T04:13:43.452Z,994.63
2023-03-26T04:14:46.915Z,994.63
2023-03-26T04:15:49.701Z,994.65
2023-03-26T04:16:49.589Z,994.64
2023-03-26T04:17:43.186Z,994.65
2023-03-26T04:18:43.046Z,994.63
2023-03-26T04:19:43.078Z,994.61
2023-03-26T04:20:43.054Z,994.63
2023-03-26T04:21:43.057Z,994.62
2023-03-26T04:22:43.061Z,994.6
2023-03-26T04:23:43.052Z,994.6
2023-03-26T04:24:43.076Z,994.57
2023-03-26T04:25:43.179Z,994.56
2023-03-26T04:26:43.161Z,994.55
2023-03-26T04:27:43.194Z,994.52
2023-03-26T04:28:43.142Z,994.55
2023-03-26T04:29:43.209Z,994.49
2023-03-26T04:30:43.252Z,994.5
2023-03-26T04:31:43.422Z,994.5
2023-03-26T04:32:43.120Z,994.48
2023-03-26T04:33:43.052Z,994.46
2023-03-26T04:34:43.521Z,994.47
2023-03-26T04:35:47.116Z,994.49
2023-03-26T04:36:49.879Z,994.46
2023-03-26T04:37:49.797Z,994.46
2023-03-26T04:38:43.057Z,994.44
2023-03-26T04:39:43.045Z,994.43
2023-03-26T04:40:43.080Z,994.43
2023-03-26T04:41:43.061Z,994.42
2023-03-26T04:42:43.050Z,994.37
2023-03-26T04:43:43.052Z,994.38
2023-03-26T04:44:43.145Z,994.32
2023-03-26T04:45:43.244Z,994.35
2023-03-26T04:46:43.458Z,994.32
2023-03-26T04:47:43.314Z,994.35
2023-03-26T04:48:43.355Z,994.35
2023-03-26T04:49:43.466Z,994.3
2023-03-26T04:50:43.071Z,994.28
2023-03-26T04:51:43.051Z,994.28
2023-03-26T04:52:46.056Z,994.3
2023-03-26T04:54:43.052Z,994.26
2023-03-26T04:55:43.899Z,994.24
2023-03-26T04:56:47.069Z,994.22
2023-03-26T04:57:49.916Z,994.23
2023-03-26T04:58:49.257Z,994.19
2023-03-26T04:59:43.061Z,994.21
2023-03-26T05:00:43.083Z,994.2
2023-03-26T05:01:43.081Z,994.19
2023-03-26T05:02:43.091Z,994.19
2023-03-26T05:03:43.060Z,994.16
2023-03-26T05:04:43.095Z,994.16
2023-03-26T05:05:43.097Z,994.17
2023-03-26T05:06:43.087Z,994.13
2023-03-26T05:07:43.068Z,994.15
2023-03-26T05:08:43.055Z,994.13
2023-03-26T05:09:43.062Z,994.13
2023-03-26T05:10:43.065Z,994.11
2023-03-26T05:11:43.059Z,994.11
2023-03-26T05:12:43.067Z,994.06
2023-03-26T05:13:43.084Z,994.03
2023-03-26T05:14:43.051Z,994.03
2023-03-26T05:15:43.053Z,994.04
2023-03-26T05:16:43.720Z,994.03
2023-03-26T05:17:47.191Z,993.97
2023-03-26T05:18:50.120Z,994.03
2023-03-26T05:19:49.432Z,993.95
2023-03-26T05:20:43.068Z,994
2023-03-26T05:21:43.108Z,993.98
2023-03-26T05:22:43.054Z,994.02
2023-03-26T05:23:43.056Z,993.96
2023-03-26T05:24:43.045Z,993.99
2023-03-26T05:25:43.059Z,993.98
2023-03-26T05:26:43.051Z,993.95
2023-03-26T05:27:43.046Z,993.94
2023-03-26T05:28:43.055Z,993.94
2023-03-26T05:29:43.053Z,993.9
2023-03-26T05:30:43.051Z,993.91
2023-03-26T05:31:43.062Z,993.89
2023-03-26T05:32:43.116Z,993.89
2023-03-26T05:33:43.119Z,993.86
2023-03-26T05:34:43.070Z,993.88
2023-03-26T05:35:43.112Z,993.84
2023-03-26T05:36:43.050Z,993.82
2023-03-26T05:37:43.820Z,993.85
2023-03-26T05:38:47.365Z,993.86
2023-03-26T05:39:50.234Z,993.82
2023-03-26T05:40:49.546Z,993.81
2023-03-26T05:41:43.078Z,993.82
2023-03-26T05:42:43.139Z,993.82
2023-03-26T05:43:43.065Z,993.81
2023-03-26T05:44:43.073Z,993.81
2023-03-26T05:45:43.176Z,993.8
2023-03-26T05:46:43.055Z,993.8
2023-03-26T05:47:43.074Z,993.78
2023-03-26T05:48:43.051Z,993.8
2023-03-26T05:49:43.088Z,993.77
2023-03-26T05:50:43.056Z,993.73
2023-03-26T05:51:43.056Z,993.72
2023-03-26T05:52:43.054Z,993.71
2023-03-26T05:53:43.064Z,993.69
2023-03-26T05:54:43.081Z,993.67
2023-03-26T05:55:43.060Z,993.65
2023-03-26T05:56:43.088Z,993.63
2023-03-26T05:57:43.053Z,993.64
2023-03-26T05:58:43.916Z,993.59
2023-03-26T05:59:47.495Z,993.57
2023-03-26T06:00:50.262Z,993.59
2023-03-26T06:01:49.661Z,993.56
2023-03-26T06:02:43.086Z,993.53
2023-03-26T06:03:43.331Z,993.57
2023-03-26T06:04:43.155Z,993.51
2023-03-26T06:05:43.085Z,993.54
2023-03-26T06:06:43.229Z,993.49
2023-03-26T06:07:43.054Z,993.47
2023-03-26T06:08:43.090Z,993.47
2023-03-26T06:09:43.052Z,993.46
2023-03-26T06:10:43.047Z,993.42
2023-03-26T06:11:43.054Z,993.43
2023-03-26T06:12:43.093Z,993.38
2023-03-26T06:13:43.128Z,993.38
2023-03-26T06:14:43.099Z,993.4
2023-03-26T06:15:43.126Z,993.4
2023-03-26T06:16:43.059Z,993.39
2023-03-26T06:17:43.068Z,993.37
2023-03-26T06:18:43.103Z,993.37
2023-03-26T06:19:44.099Z,993.33
2023-03-26T06:20:47.375Z,993.36
2023-03-26T06:21:50.360Z,993.34
2023-03-26T06:22:49.708Z,993.27
2023-03-26T06:23:43.072Z,993.31
2023-03-26T06:24:43.067Z,993.29
2023-03-26T06:25:43.051Z,993.28
2023-03-26T06:26:43.082Z,993.28
2023-03-26T06:27:43.082Z,993.22
2023-03-26T06:28:43.047Z,993.22
2023-03-26T06:29:43.083Z,993.26
2023-03-26T06:30:43.131Z,993.15
2023-03-26T06:31:43.086Z,993.18
2023-03-26T06:32:43.220Z,993.14
2023-03-26T06:33:43.269Z,993.16
2023-03-26T06:34:43.146Z,993.16
2023-03-26T06:35:43.080Z,993.14
2023-03-26T06:36:43.054Z,993.13
2023-03-26T06:37:43.053Z,993.13
2023-03-26T06:38:43.049Z,993.14
2023-03-26T06:39:43.065Z,993.13
2023-03-26T06:40:44.138Z,993.17
2023-03-26T06:41:47.609Z,993.14
2023-03-26T06:43:06.584Z,993.13
2023-03-26T06:43:49.866Z,993.14
2023-03-26T06:44:43.119Z,993.13
2023-03-26T06:45:43.359Z,993.1
2023-03-26T06:46:43.406Z,993.07
2023-03-26T06:47:43.358Z,993.1
2023-03-26T06:48:43.066Z,993.09
2023-03-26T06:49:45.375Z,993.1
2023-03-26T06:50:43.197Z,993.08
2023-03-26T06:51:43.290Z,993.13
2023-03-26T06:52:43.439Z,993.09
2023-03-26T06:53:43.062Z,993.06
2023-03-26T06:54:43.047Z,993.06
2023-03-26T06:55:43.202Z,993.02
2023-03-26T06:56:43.063Z,993
2023-03-26T06:57:43.078Z,992.98
2023-03-26T06:58:43.093Z,992.97
2023-03-26T06:59:43.064Z,992.96
2023-03-26T07:00:43.084Z,992.98
2023-03-26T07:01:47.230Z,992.95
2023-03-26T07:02:47.741Z,992.92
2023-03-26T07:03:50.688Z,992.94
2023-03-26T07:04:49.923Z,992.94
2023-03-26T07:05:43.343Z,992.92
2023-03-26T07:06:43.092Z,992.89
2023-03-26T07:07:49.079Z,992.9
2023-03-26T07:09:43.220Z,992.82
2023-03-26T07:10:43.278Z,992.84
2023-03-26T07:11:43.058Z,992.81
2023-03-26T07:12:43.053Z,992.82
2023-03-26T07:13:43.088Z,992.84
2023-03-26T07:14:43.065Z,992.84
2023-03-26T07:15:43.065Z,992.82
2023-03-26T07:16:43.091Z,992.81
2023-03-26T07:17:43.079Z,992.83
2023-03-26T07:18:43.079Z,992.8
2023-03-26T07:19:43.067Z,992.81
2023-03-26T07:20:43.298Z,992.83
2023-03-26T07:21:43.149Z,992.79
2023-03-26T07:22:43.162Z,992.81
2023-03-26T07:23:44.461Z,992.78
2023-03-26T07:24:47.873Z,992.77
2023-03-26T07:25:49.212Z,992.75
2023-03-26T07:26:49.077Z,992.77
2023-03-26T07:27:43.059Z,992.72
2023-03-26T07:29:03.950Z,992.7
2023-03-26T07:29:43.123Z,992.68
2023-03-26T07:30:43.064Z,992.68
2023-03-26T07:31:43.063Z,992.69
2023-03-26T07:32:43.088Z,992.7
2023-03-26T07:33:43.078Z,992.67
2023-03-26T07:34:43.077Z,992.7
2023-03-26T07:35:43.088Z,992.69
2023-03-26T07:36:43.054Z,992.72
2023-03-26T07:37:43.060Z,992.69
2023-03-26T07:38:43.079Z,992.69
2023-03-26T07:39:43.172Z,992.63
2023-03-26T07:40:43.324Z,992.65
2023-03-26T07:41:43.102Z,992.65
2023-03-26T07:42:43.354Z,992.61
2023-03-26T07:43:43.238Z,992.61
2023-03-26T07:44:44.644Z,992.61
2023-03-26T07:45:48.271Z,992.62
2023-03-26T07:46:50.387Z,992.6
2023-03-26T07:48:43.060Z,992.62
2023-03-26T07:49:43.074Z,992.67
2023-03-26T07:50:43.060Z,992.63
2023-03-26T07:51:43.054Z,992.64
2023-03-26T07:52:43.066Z,992.6
2023-03-26T07:53:43.066Z,992.58
2023-03-26T07:54:43.086Z,992.58
2023-03-26T07:55:43.060Z,992.56
2023-03-26T07:56:43.100Z,992.55
2023-03-26T07:57:43.156Z,992.55
2023-03-26T07:58:43.068Z,992.54
2023-03-26T07:59:43.079Z,992.54
2023-03-26T08:00:43.053Z,992.5
2023-03-26T08:01:43.056Z,992.5
2023-03-26T08:02:43.067Z,992.54
2023-03-26T08:03:43.077Z,992.55
2023-03-26T08:04:43.086Z,992.49
2023-03-26T08:05:44.665Z,992.51
2023-03-26T08:06:48.090Z,992.51
2023-03-26T08:07:48.662Z,992.47
2023-03-26T08:08:50.422Z,992.5
2023-03-26T08:09:43.072Z,992.47
2023-03-26T08:10:43.068Z,992.47
2023-03-26T08:11:43.057Z,992.45
2023-03-26T08:12:43.064Z,992.44
2023-03-26T08:13:43.061Z,992.45
2023-03-26T08:14:43.065Z,992.43
2023-03-26T08:15:43.093Z,992.44
2023-03-26T08:16:43.051Z,992.49
2023-03-26T08:17:43.093Z,992.46
2023-03-26T08:18:43.066Z,992.42
2023-03-26T08:19:43.120Z,992.42
2023-03-26T08:20:43.052Z,992.41
2023-03-26T08:21:43.064Z,992.44
2023-03-26T08:22:43.064Z,992.39
2023-03-26T08:23:52.064Z,992.39
2023-03-26T08:25:43.050Z,992.4
2023-03-26T08:26:44.790Z,992.38
2023-03-26T08:27:48.216Z,992.36
2023-03-26T08:28:50.380Z,992.36
2023-03-26T08:30:43.394Z,992.36
2023-03-26T08:31:43.073Z,992.37
2023-03-26T08:32:43.087Z,992.35
2023-03-26T08:33:43.144Z,992.33
2023-03-26T08:34:43.156Z,992.31
2023-03-26T08:35:43.098Z,992.32
2023-03-26T08:36:43.074Z,992.29
2023-03-26T08:37:43.058Z,992.32
2023-03-26T08:38:43.818Z,992.28
2023-03-26T08:39:43.056Z,992.29
2023-03-26T08:40:43.098Z,992.33
2023-03-26T08:41:46.059Z,992.3
2023-03-26T08:43:43.052Z,992.28
2023-03-26T08:44:43.063Z,992.28
2023-03-26T08:45:43.086Z,992.26
2023-03-26T08:46:43.078Z,992.24
2023-03-26T08:47:44.887Z,992.23
2023-03-26T08:48:48.311Z,992.26
2023-03-26T08:49:50.440Z,992.21
2023-03-26T08:51:43.151Z,992.22
2023-03-26T08:52:43.062Z,992.2
2023-03-26T08:53:43.095Z,992.21
2023-03-26T08:54:43.272Z,992.21
2023-03-26T08:55:43.213Z,992.21
2023-03-26T08:56:43.285Z,992.22
2023-03-26T08:57:43.055Z,992.23
2023-03-26T08:58:43.076Z,992.17
2023-03-26T08:59:43.051Z,992.21
2023-03-26T09:00:43.059Z,992.2
2023-03-26T09:01:43.073Z,992.19
2023-03-26T09:02:43.056Z,992.18
2023-03-26T09:03:43.110Z,992.23
2023-03-26T09:04:43.072Z,992.21
2023-03-26T09:05:43.072Z,992.2
2023-03-26T09:06:43.055Z,992.19
2023-03-26T09:07:43.046Z,992.18
2023-03-26T09:08:54.796Z,992.16
2023-03-26T09:10:50.539Z,992.16
2023-03-26T09:12:43.053Z,992.18
2023-03-26T09:13:43.075Z,992.17
2023-03-26T09:14:43.070Z,992.2
2023-03-26T09:15:43.052Z,992.14
2023-03-26T09:16:43.271Z,992.16
2023-03-26T09:17:43.069Z,992.11
2023-03-26T09:18:43.059Z,992.15
2023-03-26T09:19:43.081Z,992.09
2023-03-26T09:20:43.068Z,992.09
2023-03-26T09:21:43.083Z,992.14
2023-03-26T09:22:43.122Z,992.09
2023-03-26T09:23:43.060Z,992.09
2023-03-26T09:24:43.058Z,992.11
2023-03-26T09:25:43.062Z,992.08
2023-03-26T09:26:43.055Z,992.07
2023-03-26T09:27:43.049Z,992.1
2023-03-26T09:28:43.066Z,992.08
2023-03-26T09:29:45.415Z,992.07
2023-03-26T09:30:47.966Z,992.03
2023-03-26T09:31:50.746Z,992.06
2023-03-26T09:33:43.073Z,992.03
2023-03-26T09:34:43.100Z,992.05
2023-03-26T09:35:43.096Z,992.03
2023-03-26T09:36:43.060Z,992.05
2023-03-26T09:37:56.593Z,992.03
2023-03-26T09:39:43.194Z,992.03
2023-03-26T09:40:43.054Z,992.02
2023-03-26T09:41:43.063Z,992.03
2023-03-26T09:42:43.063Z,992.02
2023-03-26T09:43:43.155Z,991.98
2023-03-26T09:44:43.060Z,992.04
2023-03-26T09:45:43.068Z,991.99
2023-03-26T09:46:43.687Z,991.96
2023-03-26T09:47:43.207Z,991.98
2023-03-26T09:48:43.060Z,991.94
2023-03-26T09:49:43.090Z,991.93
2023-03-26T09:50:45.187Z,991.92
2023-03-26T09:51:48.192Z,991.93
2023-03-26T09:52:50.798Z,991.95
2023-03-26T09:54:43.078Z,991.95
2023-03-26T09:55:43.062Z,991.93
2023-03-26T09:56:43.063Z,991.92
2023-03-26T09:57:43.071Z,991.92
2023-03-26T09:58:43.053Z,991.92
2023-03-26T09:59:43.078Z,991.9
2023-03-26T10:00:43.109Z,991.92
2023-03-26T10:01:43.121Z,991.95
2023-03-26T10:02:49.073Z,991.93
2023-03-26T10:04:43.083Z,991.94
2023-03-26T10:05:43.072Z,991.96
2023-03-26T10:06:43.058Z,991.97
2023-03-26T10:07:43.152Z,991.96
2023-03-26T10:08:43.130Z,991.95
2023-03-26T10:09:43.063Z,991.98
2023-03-26T10:10:43.101Z,991.94
2023-03-26T10:11:45.306Z,991.92
2023-03-26T10:12:48.122Z,991.92
2023-03-26T10:13:50.847Z,991.92
2023-03-26T10:15:43.056Z,991.9
2023-03-26T10:16:43.092Z,991.95
2023-03-26T10:17:43.069Z,991.93
2023-03-26T10:18:43.056Z,991.96
2023-03-26T10:19:43.057Z,991.98
2023-03-26T10:20:43.095Z,991.95
2023-03-26T10:21:43.072Z,991.95
2023-03-26T10:22:43.147Z,991.98
2023-03-26T10:23:43.243Z,991.98
2023-03-26T10:24:43.059Z,991.9
2023-03-26T10:25:43.055Z,991.93
2023-03-26T10:27:08.160Z,991.9
2023-03-26T10:27:43.045Z,991.88
2023-03-26T10:28:43.088Z,991.89
2023-03-26T10:29:43.055Z,991.87
2023-03-26T10:30:43.199Z,991.9
2023-03-26T10:31:43.092Z,991.87
2023-03-26T10:32:43.076Z,991.86
2023-03-26T10:33:45.531Z,991.84
2023-03-26T10:34:48.323Z,991.86
2023-03-26T10:35:49.294Z,991.84
2023-03-26T10:37:43.056Z,991.85
2023-03-26T10:38:43.064Z,991.83
2023-03-26T10:39:45.060Z,991.86
2023-03-26T10:41:43.089Z,991.87
2023-03-26T10:42:43.048Z,991.86
2023-03-26T10:43:43.052Z,991.87
2023-03-26T10:44:43.124Z,991.85
2023-03-26T10:45:43.051Z,991.86
2023-03-26T10:46:43.085Z,991.88
2023-03-26T10:47:43.085Z,991.88
2023-03-26T10:48:43.051Z,991.83
2023-03-26T10:49:43.048Z,991.86
2023-03-26T10:50:43.049Z,991.86
2023-03-26T10:51:43.053Z,991.82
2023-03-26T10:52:43.051Z,991.85
2023-03-26T10:53:43.167Z,991.83
2023-03-26T10:54:45.585Z,991.83
2023-03-26T10:55:48.539Z,991.82
2023-03-26T10:56:50.170Z,991.82
2023-03-26T10:58:56.207Z,991.85
2023-03-26T11:00:43.054Z,991.82
2023-03-26T11:01:43.082Z,991.79
2023-03-26T11:02:43.244Z,991.81
2023-03-26T11:03:43.068Z,991.81
2023-03-26T11:04:43.064Z,991.79
2023-03-26T11:05:43.070Z,991.82
2023-03-26T11:06:43.053Z,991.82
2023-03-26T11:07:43.069Z,991.81
2023-03-26T11:08:43.060Z,991.82
2023-03-26T11:09:43.063Z,991.83
2023-03-26T11:10:43.060Z,991.78
2023-03-26T11:11:43.303Z,991.82
2023-03-26T11:12:43.066Z,991.81
2023-03-26T11:13:43.056Z,991.81
2023-03-26T11:14:43.246Z,991.81
2023-03-26T11:15:45.546Z,991.83
2023-03-26T11:16:48.478Z,991.8
2023-03-26T11:17:50.345Z,991.81
2023-03-26T11:19:43.075Z,991.83
2023-03-26T11:20:43.064Z,991.79
2023-03-26T11:21:43.055Z,991.76
2023-03-26T11:22:43.098Z,991.82
2023-03-26T11:23:43.500Z,991.84
2023-03-26T11:24:43.054Z,991.8
2023-03-26T11:25:43.060Z,991.83
2023-03-26T11:26:43.069Z,991.79
2023-03-26T11:27:43.053Z,991.81
2023-03-26T11:29:03.526Z,991.84
2023-03-26T11:29:43.075Z,991.8
2023-03-26T11:30:43.067Z,991.77
2023-03-26T11:31:43.117Z,991.76
2023-03-26T11:32:43.120Z,991.78
2023-03-26T11:33:49.320Z,991.79
2023-03-26T11:35:44.462Z,991.76
2023-03-26T11:36:45.675Z,991.74
2023-03-26T11:37:48.648Z,991.76
2023-03-26T11:38:50.384Z,991.76
2023-03-26T11:40:43.111Z,991.71
2023-03-26T11:41:43.107Z,991.71
2023-03-26T11:42:43.054Z,991.68
2023-03-26T11:43:43.103Z,991.67
2023-03-26T11:44:43.077Z,991.68
2023-03-26T11:45:43.055Z,991.65
2023-03-26T11:46:43.080Z,991.64
2023-03-26T11:47:43.111Z,991.63
2023-03-26T11:48:43.096Z,991.6
2023-03-26T11:49:43.101Z,991.62
2023-03-26T11:50:43.061Z,991.57
2023-03-26T11:51:43.063Z,991.59
2023-03-26T11:52:43.765Z,991.59
2023-03-26T11:53:43.069Z,991.59
2023-03-26T11:54:43.060Z,991.62
2023-03-26T11:55:43.056Z,991.6
2023-03-26T11:57:04.144Z,991.58
2023-03-26T11:57:45.748Z,991.57
2023-03-26T11:58:48.751Z,991.57
2023-03-26T11:59:56.911Z,991.57
2023-03-26T12:01:43.162Z,991.54
2023-03-26T12:02:43.097Z,991.53
2023-03-26T12:03:43.077Z,991.51
2023-03-26T12:04:43.154Z,991.53
2023-03-26T12:05:43.052Z,991.5
2023-03-26T12:06:43.057Z,991.49
2023-03-26T12:07:43.120Z,991.49
2023-03-26T12:08:43.243Z,991.49
2023-03-26T12:09:43.056Z,991.52
2023-03-26T12:10:43.119Z,991.48
2023-03-26T12:11:43.054Z,991.45
2023-03-26T12:12:43.042Z,991.47
2023-03-26T12:13:43.087Z,991.44
2023-03-26T12:14:43.094Z,991.42
2023-03-26T12:15:43.072Z,991.45
2023-03-26T12:16:43.368Z,991.48
2023-03-26T12:17:43.994Z,991.42
2023-03-26T12:18:45.804Z,991.39
2023-03-26T12:19:48.782Z,991.4
2023-03-26T12:20:50.485Z,991.36
2023-03-26T12:22:54.748Z,991.39
2023-03-26T12:24:43.076Z,991.39
2023-03-26T12:25:43.298Z,991.38
2023-03-26T12:26:43.404Z,991.36
2023-03-26T12:27:43.067Z,991.33
2023-03-26T12:28:46.125Z,991.34
2023-03-26T12:30:43.056Z,991.32
2023-03-26T12:31:43.081Z,991.31
2023-03-26T12:32:47.220Z,991.31
2023-03-26T12:33:43.309Z,991.31
2023-03-26T12:34:43.067Z,991.32
2023-03-26T12:35:43.138Z,991.3
2023-03-26T12:36:43.049Z,991.29
2023-03-26T12:37:43.053Z,991.25
2023-03-26T12:38:43.127Z,991.23
2023-03-26T12:40:08.362Z,991.24
2023-03-26T12:42:26.349Z,991.29
2023-03-26T12:44:52.102Z,991.25
2023-03-26T12:44:52.529Z,991.3
2023-03-26T12:44:59.922Z,991.28
2023-03-26T12:47:54.078Z,991.3
2023-03-26T12:47:59.635Z,991.29
2023-03-26T12:49:43.063Z,991.27
2023-03-26T12:50:43.073Z,991.29
2023-03-26T12:51:43.050Z,991.26
2023-03-26T12:52:43.060Z,991.26
2023-03-26T12:53:43.299Z,991.25
2023-03-26T12:54:43.282Z,991.28
2023-03-26T12:55:43.052Z,991.31
2023-03-26T12:56:43.100Z,991.27
2023-03-26T12:57:43.250Z,991.24
2023-03-26T12:58:43.058Z,991.21
2023-03-26T12:59:43.347Z,991.21
2023-03-26T13:00:46.780Z,991.26
2023-03-26T13:01:49.686Z,991.21
2023-03-26T13:02:50.805Z,991.23
2023-03-26T13:05:04.903Z,991.18
2023-03-26T13:07:00.128Z,991.2
2023-03-26T13:08:43.093Z,991.16
2023-03-26T13:09:43.052Z,991.14
2023-03-26T13:10:43.085Z,991.16
2023-03-26T13:11:43.055Z,991.15
2023-03-26T13:12:43.058Z,991.13
2023-03-26T13:13:43.068Z,991.14
2023-03-26T13:14:43.059Z,991.15
2023-03-26T13:15:43.080Z,991.14
2023-03-26T13:16:43.454Z,991.1